Current Weather

Michigan City Municipal Airpo

Michigan City Municipal Airpo, Indiana (KMGC)

Report from: Thursday, May 19, 2022 1:35 PM EDT
Current time: Thursday, May 19, 2022 1:53 PM EDT

Nearby weather
Weather history
Weather forecast

Temperature23.0°C (73.4°F)
Dew point18.0°C (64.4°F)
Winds 7 kts (3.6 m/s, 8.1 mph) South (180°)
Visibility10 mi. (16.1 km)
Clouds Sky clear
Altimeter29.68 in.Hg (1005 mB)
Relative humidity73 %
Density altitude1,488 ft. (454 m)
Remarks Fully automated report
Automated weather observing station with precipitation discriminator
Flight conditions Visual Meteorological Conditions
Raw dataKMGC 191735Z AUTO 18007KT 10SM CLR 23/18 A2968 RMK AO2
An error has occurred. This application may no longer respond until reloaded. Reload 🗙